createdAt,value
2024-05-09T00:00:57.948Z,0.00
2024-05-09T00:01:57.929Z,0.00
2024-05-09T00:02:57.880Z,0.00
2024-05-09T00:03:57.917Z,0.00
2024-05-09T00:04:57.949Z,0.00
2024-05-09T00:05:57.889Z,0.00
2024-05-09T00:06:57.872Z,0.00
2024-05-09T00:07:57.859Z,0.00
2024-05-09T00:08:57.796Z,0.00
2024-05-09T00:09:57.859Z,0.00
2024-05-09T00:10:57.895Z,0.00
2024-05-09T00:11:57.944Z,0.00
2024-05-09T00:12:57.777Z,0.00
2024-05-09T00:13:57.774Z,0.00
2024-05-09T00:14:57.917Z,0.00
2024-05-09T00:15:58.203Z,0.00
2024-05-09T00:16:57.696Z,0.00
2024-05-09T00:17:57.780Z,0.00
2024-05-09T00:18:57.890Z,0.00
2024-05-09T00:19:57.678Z,0.00
2024-05-09T00:20:57.833Z,0.00
2024-05-09T00:21:57.653Z,0.00
2024-05-09T00:22:57.687Z,0.00
2024-05-09T00:23:57.613Z,0.00
2024-05-09T00:24:58.502Z,0.00
2024-05-09T00:25:57.616Z,0.00
2024-05-09T00:26:57.597Z,0.00
2024-05-09T00:27:57.560Z,0.00
2024-05-09T00:28:57.609Z,0.00
2024-05-09T00:29:57.531Z,0.00
2024-05-09T00:30:57.507Z,0.00
2024-05-09T00:31:57.648Z,0.00
2024-05-09T00:32:57.703Z,0.00
2024-05-09T00:33:57.961Z,0.00
2024-05-09T00:34:57.620Z,0.00
2024-05-09T00:35:57.490Z,0.00
2024-05-09T00:36:57.465Z,0.00
2024-05-09T00:37:57.504Z,0.00
2024-05-09T00:38:57.443Z,0.00
2024-05-09T00:39:57.412Z,0.00
2024-05-09T00:40:57.468Z,0.00
2024-05-09T00:41:57.400Z,0.00
2024-05-09T00:42:57.396Z,0.00
2024-05-09T00:43:57.412Z,0.00
2024-05-09T00:44:57.375Z,0.00
2024-05-09T00:45:57.333Z,0.00
2024-05-09T00:46:57.327Z,0.00
2024-05-09T00:47:57.604Z,0.00
2024-05-09T00:48:57.482Z,0.00
2024-05-09T00:49:57.302Z,0.00
2024-05-09T00:50:57.360Z,0.00
2024-05-09T00:51:57.246Z,0.00
2024-05-09T00:52:57.252Z,0.00
2024-05-09T00:53:57.266Z,0.00
2024-05-09T00:54:57.202Z,0.00
2024-05-09T00:55:57.802Z,0.00
2024-05-09T00:56:57.199Z,0.00
2024-05-09T00:57:57.180Z,0.00
2024-05-09T00:58:57.162Z,0.00
2024-05-09T00:59:57.174Z,0.00
2024-05-09T01:00:57.176Z,0.00
2024-05-09T01:01:57.193Z,0.00
2024-05-09T01:02:57.170Z,0.00
2024-05-09T01:03:57.265Z,0.00
2024-05-09T01:04:57.167Z,0.00
2024-05-09T01:05:57.096Z,0.00
2024-05-09T01:06:57.048Z,0.00
2024-05-09T01:07:57.160Z,0.00
2024-05-09T01:08:57.022Z,0.00
2024-05-09T01:09:57.031Z,0.00
2024-05-09T01:10:57.061Z,0.00
2024-05-09T01:11:57.100Z,0.00
2024-05-09T01:12:57.144Z,0.00
2024-05-09T01:13:57.016Z,0.00
2024-05-09T01:14:56.983Z,0.00
2024-05-09T01:15:56.932Z,0.00
2024-05-09T01:16:56.960Z,0.00
2024-05-09T01:17:57.452Z,0.00
2024-05-09T01:18:57.002Z,0.00
2024-05-09T01:19:56.991Z,0.00
2024-05-09T01:20:56.950Z,0.00
2024-05-09T01:21:56.960Z,0.00
2024-05-09T01:22:56.868Z,0.00
2024-05-09T01:23:57.791Z,0.00
2024-05-09T01:24:56.821Z,0.00
2024-05-09T01:25:58.355Z,0.00
2024-05-09T01:26:56.789Z,0.00
2024-05-09T01:27:56.770Z,0.00
2024-05-09T01:28:56.799Z,0.00
2024-05-09T01:29:56.964Z,0.00
2024-05-09T01:30:56.770Z,0.00
2024-05-09T01:31:56.786Z,0.00
2024-05-09T01:32:56.920Z,0.00
2024-05-09T01:33:56.814Z,0.00
2024-05-09T01:34:56.796Z,0.00
2024-05-09T01:35:56.694Z,0.00
2024-05-09T01:36:56.677Z,0.00
2024-05-09T01:37:56.748Z,0.00
2024-05-09T01:38:56.663Z,0.00
2024-05-09T01:39:57.493Z,0.00
2024-05-09T01:40:56.730Z,0.00
2024-05-09T01:41:56.636Z,0.00
2024-05-09T01:42:56.591Z,0.00
2024-05-09T01:43:56.655Z,0.00
2024-05-09T01:44:56.561Z,0.00
2024-05-09T01:45:56.571Z,0.00
2024-05-09T01:46:56.568Z,0.00
2024-05-09T01:47:56.780Z,0.00
2024-05-09T01:48:56.646Z,0.00
2024-05-09T01:49:56.564Z,0.00
2024-05-09T01:50:56.510Z,0.00
2024-05-09T01:51:56.455Z,0.00
2024-05-09T01:52:56.554Z,0.00
2024-05-09T01:53:56.447Z,0.00
2024-05-09T01:54:56.452Z,0.00
2024-05-09T01:55:56.437Z,0.00
2024-05-09T01:56:56.407Z,0.00
2024-05-09T01:57:56.388Z,0.00
2024-05-09T01:58:56.426Z,0.00
2024-05-09T01:59:56.390Z,0.00
2024-05-09T02:00:56.390Z,0.00
2024-05-09T02:01:57.747Z,0.00
2024-05-09T02:02:56.534Z,0.00
2024-05-09T02:03:56.497Z,0.00
2024-05-09T02:04:56.471Z,0.00
2024-05-09T02:05:56.405Z,0.00
2024-05-09T02:06:57.721Z,0.00
2024-05-09T02:07:56.348Z,0.00
2024-05-09T02:08:56.263Z,0.00
2024-05-09T02:09:56.219Z,0.00
2024-05-09T02:10:56.338Z,0.00
2024-05-09T02:11:56.327Z,0.00
2024-05-09T02:12:56.176Z,0.00
2024-05-09T02:13:56.172Z,0.00
2024-05-09T02:14:56.220Z,0.00
2024-05-09T02:15:56.151Z,0.00
2024-05-09T02:16:56.233Z,0.00
2024-05-09T02:17:56.321Z,0.00
2024-05-09T02:18:56.193Z,0.00
2024-05-09T02:19:56.122Z,0.00
2024-05-09T02:20:56.196Z,0.00
2024-05-09T02:21:56.076Z,0.00
2024-05-09T02:22:56.075Z,0.00
2024-05-09T02:23:56.058Z,0.00
2024-05-09T02:24:56.052Z,0.00
2024-05-09T02:25:56.115Z,0.00
2024-05-09T02:26:56.023Z,0.00
2024-05-09T02:27:56.001Z,0.00
2024-05-09T02:28:56.105Z,0.00
2024-05-09T02:29:56.022Z,0.00
2024-05-09T02:30:55.998Z,0.00
2024-05-09T02:31:56.018Z,0.00
2024-05-09T02:32:56.085Z,0.00
2024-05-09T02:33:56.139Z,0.00
2024-05-09T02:34:56.011Z,0.00
2024-05-09T02:35:55.941Z,0.00
2024-05-09T02:36:55.901Z,0.00
2024-05-09T02:37:55.971Z,0.00
2024-05-09T02:38:55.888Z,0.00
2024-05-09T02:39:55.847Z,0.00
2024-05-09T02:40:55.875Z,0.00
2024-05-09T02:41:55.813Z,0.00
2024-05-09T02:42:55.843Z,0.00
2024-05-09T02:43:55.871Z,0.00
2024-05-09T02:44:55.787Z,0.00
2024-05-09T02:45:55.766Z,0.00
2024-05-09T02:46:55.797Z,0.00
2024-05-09T02:47:55.952Z,0.00
2024-05-09T02:48:55.844Z,0.00
2024-05-09T02:49:55.730Z,0.00
2024-05-09T02:50:55.754Z,0.00
2024-05-09T02:51:55.738Z,0.00
2024-05-09T02:52:55.813Z,0.00
2024-05-09T02:53:55.820Z,0.00
2024-05-09T02:54:55.730Z,0.00
2024-05-09T02:55:55.758Z,0.00
2024-05-09T02:56:55.643Z,0.00
2024-05-09T02:57:55.635Z,0.00
2024-05-09T02:58:55.712Z,0.00
2024-05-09T02:59:55.683Z,0.00
2024-05-09T03:00:55.633Z,0.00
2024-05-09T03:01:55.650Z,0.00
2024-05-09T03:02:55.669Z,0.00
2024-05-09T03:03:55.820Z,0.00
2024-05-09T03:04:55.732Z,0.00
2024-05-09T03:05:55.533Z,0.00
2024-05-09T03:06:55.647Z,0.00
2024-05-09T03:07:55.565Z,0.00
2024-05-09T03:08:55.486Z,0.00
2024-05-09T03:09:55.494Z,0.00
2024-05-09T03:10:55.588Z,0.00
2024-05-09T03:11:55.636Z,0.00
2024-05-09T03:12:55.417Z,0.00
2024-05-09T03:13:55.471Z,0.00
2024-05-09T03:14:55.405Z,0.00
2024-05-09T03:15:55.413Z,0.00
2024-05-09T03:16:55.542Z,0.00
2024-05-09T03:17:55.579Z,0.00
2024-05-09T03:18:55.586Z,0.00
2024-05-09T03:19:55.374Z,0.00
2024-05-09T03:20:55.444Z,4.00
2024-05-09T03:21:55.302Z,0.00
2024-05-09T03:22:56.928Z,0.00
2024-05-09T03:23:55.378Z,4.00
2024-05-09T03:24:55.261Z,0.00
2024-05-09T03:25:55.303Z,4.00
2024-05-09T03:26:55.250Z,0.00
2024-05-09T03:27:55.256Z,4.00
2024-05-09T03:28:55.287Z,4.00
2024-05-09T03:29:55.217Z,4.00
2024-05-09T03:30:55.186Z,8.00
2024-05-09T03:31:55.233Z,8.00
2024-05-09T03:32:55.318Z,8.00
2024-05-09T03:33:55.255Z,8.00
2024-05-09T03:34:55.178Z,12.00
2024-05-09T03:35:55.156Z,8.00
2024-05-09T03:36:55.112Z,12.00
2024-05-09T03:37:55.189Z,12.00
2024-05-09T03:38:55.097Z,16.00
2024-05-09T03:39:55.097Z,20.00
2024-05-09T03:40:55.099Z,24.00
2024-05-09T03:41:55.040Z,24.00
2024-05-09T03:42:55.038Z,28.00
2024-05-09T03:43:55.060Z,28.00
2024-05-09T03:44:55.013Z,36.00
2024-05-09T03:45:55.048Z,40.00
2024-05-09T03:46:55.104Z,44.00
2024-05-09T03:47:55.280Z,48.00
2024-05-09T03:48:55.109Z,56.00
2024-05-09T03:49:54.989Z,60.00
2024-05-09T03:50:55.024Z,64.00
2024-05-09T03:51:54.924Z,68.00
2024-05-09T03:52:54.955Z,76.00
2024-05-09T03:53:54.930Z,84.00
2024-05-09T03:54:54.877Z,92.00
2024-05-09T03:55:54.914Z,96.00
2024-05-09T03:56:54.867Z,100.00
2024-05-09T03:57:54.839Z,108.00
2024-05-09T03:58:54.901Z,116.00
2024-05-09T03:59:54.816Z,124.00
2024-05-09T04:00:54.837Z,132.00
2024-05-09T04:01:54.891Z,140.00
2024-05-09T04:02:54.885Z,144.00
2024-05-09T04:03:54.861Z,156.00
2024-05-09T04:04:54.863Z,164.00
2024-05-09T04:05:54.748Z,176.00
2024-05-09T04:06:54.781Z,192.00
2024-05-09T04:07:54.806Z,200.00
2024-05-09T04:08:54.761Z,212.00
2024-05-09T04:09:54.710Z,220.00
2024-05-09T04:10:54.750Z,228.00
2024-05-09T04:11:54.889Z,240.00
2024-05-09T04:12:54.663Z,240.00
2024-05-09T04:13:54.670Z,248.00
2024-05-09T04:14:54.615Z,252.00
2024-05-09T04:15:54.609Z,260.00
2024-05-09T04:16:54.732Z,276.00
2024-05-09T04:17:54.811Z,280.00
2024-05-09T04:18:54.683Z,292.00
2024-05-09T04:19:54.655Z,308.00
2024-05-09T04:20:54.576Z,328.00
2024-05-09T04:21:54.531Z,348.00
2024-05-09T04:22:54.602Z,364.00
2024-05-09T04:23:54.503Z,376.00
2024-05-09T04:24:54.513Z,396.00
2024-05-09T04:25:54.533Z,408.00
2024-05-09T04:26:54.474Z,428.00
2024-05-09T04:27:54.520Z,456.00
2024-05-09T04:28:54.461Z,480.00
2024-05-09T04:29:54.438Z,500.00
2024-05-09T04:30:54.438Z,520.00
2024-05-09T04:31:54.566Z,540.00
2024-05-09T04:32:54.735Z,584.00
2024-05-09T04:33:54.579Z,640.00
2024-05-09T04:34:54.394Z,708.00
2024-05-09T04:35:54.354Z,780.00
2024-05-09T04:36:54.342Z,876.00
2024-05-09T04:37:54.392Z,924.00
2024-05-09T04:38:54.315Z,976.00
2024-05-09T04:39:54.346Z,1004.00
2024-05-09T04:40:54.334Z,988.00
2024-05-09T04:41:54.271Z,956.00
2024-05-09T04:42:54.273Z,916.00
2024-05-09T04:43:54.315Z,912.00
2024-05-09T04:44:56.502Z,916.00
2024-05-09T04:45:54.237Z,960.00
2024-05-09T04:46:54.256Z,1028.00
2024-05-09T04:47:54.346Z,1092.00
2024-05-09T04:48:54.318Z,1136.00
2024-05-09T04:49:54.576Z,1120.00
2024-05-09T04:50:54.251Z,1180.00
2024-05-09T04:51:54.209Z,1168.00
2024-05-09T04:52:54.396Z,1124.00
2024-05-09T04:53:54.158Z,1108.00
2024-05-09T04:54:57.554Z,1148.00
2024-05-09T04:55:54.291Z,1144.00
2024-05-09T04:56:54.144Z,1092.00
2024-05-09T04:57:54.118Z,1084.00
2024-05-09T04:58:54.212Z,1132.00
2024-05-09T04:59:54.260Z,1208.00
2024-05-09T05:00:54.219Z,1252.00
2024-05-09T05:01:54.383Z,1248.00
2024-05-09T05:02:54.320Z,1292.00
2024-05-09T05:03:55.872Z,1404.00
2024-05-09T05:04:54.125Z,1472.00
2024-05-09T05:05:54.040Z,1504.00
2024-05-09T05:06:54.003Z,1556.00
2024-05-09T05:07:53.970Z,1564.00
2024-05-09T05:08:53.917Z,1476.00
2024-05-09T05:09:53.955Z,1540.00
2024-05-09T05:10:54.041Z,1632.00
2024-05-09T05:11:53.981Z,1652.00
2024-05-09T05:12:53.923Z,1612.00
2024-05-09T05:13:53.930Z,1680.00
2024-05-09T05:14:53.856Z,1772.00
2024-05-09T05:15:53.894Z,1792.00
2024-05-09T05:16:53.885Z,1780.00
2024-05-09T05:17:53.950Z,1900.00
2024-05-09T05:18:54.910Z,1972.00
2024-05-09T05:19:53.917Z,1912.00
2024-05-09T05:20:53.829Z,1884.00
2024-05-09T05:21:53.853Z,1872.00
2024-05-09T05:22:53.796Z,1892.00
2024-05-09T05:23:53.788Z,1860.00
2024-05-09T05:24:53.744Z,1876.00
2024-05-09T05:25:54.425Z,1892.00
2024-05-09T05:26:53.713Z,2024.00
2024-05-09T05:27:53.756Z,2184.00
2024-05-09T05:28:53.775Z,2244.00
2024-05-09T05:29:53.654Z,2084.00
2024-05-09T05:30:53.658Z,2064.00
2024-05-09T05:31:53.709Z,2096.00
2024-05-09T05:32:53.737Z,2072.00
2024-05-09T05:33:53.764Z,1964.00
2024-05-09T05:34:53.636Z,1952.00
2024-05-09T05:35:53.578Z,2012.00
2024-05-09T05:36:53.563Z,1900.00
2024-05-09T05:37:53.567Z,2136.00
2024-05-09T05:38:53.560Z,2276.00
2024-05-09T05:39:53.542Z,2232.00
2024-05-09T05:40:53.582Z,2312.00
2024-05-09T05:41:53.513Z,2360.00
2024-05-09T05:42:53.504Z,2428.00
2024-05-09T05:43:53.543Z,2620.00
2024-05-09T05:44:53.487Z,2752.00
2024-05-09T05:45:53.478Z,2716.00
2024-05-09T05:46:53.518Z,2864.00
2024-05-09T05:47:53.564Z,2912.00
2024-05-09T05:48:53.605Z,3016.00
2024-05-09T05:49:53.530Z,2972.00
2024-05-09T05:50:53.492Z,2588.00
2024-05-09T05:51:53.383Z,2580.00
2024-05-09T05:52:53.385Z,3024.00
2024-05-09T05:53:53.359Z,3176.00
2024-05-09T05:54:53.375Z,2648.00
2024-05-09T05:55:53.403Z,2500.00
2024-05-09T05:56:53.338Z,2584.00
2024-05-09T05:57:53.316Z,2748.00
2024-05-09T05:58:53.319Z,2688.00
2024-05-09T05:59:53.316Z,2940.00
2024-05-09T06:00:53.502Z,3200.00
2024-05-09T06:01:53.332Z,3056.00
2024-05-09T06:02:53.415Z,3272.00
2024-05-09T06:03:53.448Z,3244.00
2024-05-09T06:04:53.336Z,3408.00
2024-05-09T06:05:53.284Z,3008.00
2024-05-09T06:06:53.324Z,2816.00
2024-05-09T06:07:53.257Z,2928.00
2024-05-09T06:08:53.293Z,2908.00
2024-05-09T06:09:53.210Z,2900.00
2024-05-09T06:10:53.253Z,3176.00
2024-05-09T06:11:53.264Z,3388.00
2024-05-09T06:12:53.155Z,3012.00
2024-05-09T06:13:53.194Z,3468.00
2024-05-09T06:14:53.091Z,3908.00
2024-05-09T06:15:53.122Z,3604.00
2024-05-09T06:16:54.697Z,3760.00
2024-05-09T06:17:53.250Z,3820.00
2024-05-09T06:18:53.298Z,3776.00
2024-05-09T06:19:53.349Z,3160.00
2024-05-09T06:20:53.071Z,2908.00
2024-05-09T06:21:53.017Z,3548.00
2024-05-09T06:22:53.157Z,4464.00
2024-05-09T06:23:52.991Z,5296.00
2024-05-09T06:24:52.975Z,3048.00
2024-05-09T06:25:52.984Z,2880.00
2024-05-09T06:26:52.952Z,3900.00
2024-05-09T06:27:53.021Z,4352.00
2024-05-09T06:28:52.994Z,4492.00
2024-05-09T06:29:52.896Z,3700.00
2024-05-09T06:30:52.907Z,3268.00
2024-05-09T06:31:52.864Z,3640.00
2024-05-09T06:32:53.712Z,3460.00
2024-05-09T06:33:53.047Z,4676.00
2024-05-09T06:34:53.023Z,4988.00
2024-05-09T06:35:53.243Z,4288.00
2024-05-09T06:36:52.856Z,3760.00
2024-05-09T06:37:52.878Z,3208.00
2024-05-09T06:38:52.849Z,3744.00
2024-05-09T06:39:52.753Z,4612.00
2024-05-09T06:40:52.795Z,4052.00
2024-05-09T06:41:52.731Z,3764.00
2024-05-09T06:42:52.746Z,5124.00
2024-05-09T06:43:52.800Z,4768.00
2024-05-09T06:44:52.945Z,3096.00
2024-05-09T06:45:52.961Z,2724.00
2024-05-09T06:46:53.626Z,3136.00
2024-05-09T06:47:52.873Z,3616.00
2024-05-09T06:48:53.226Z,4140.00
2024-05-09T06:49:52.834Z,3900.00
2024-05-09T06:50:52.807Z,3536.00
2024-05-09T06:51:52.682Z,3840.00
2024-05-09T06:52:52.716Z,3008.00
2024-05-09T06:53:52.981Z,3000.00
2024-05-09T06:54:52.611Z,3284.00
2024-05-09T06:55:52.786Z,3424.00
2024-05-09T06:56:52.693Z,3932.00
2024-05-09T06:57:52.624Z,3688.00
2024-05-09T06:58:52.598Z,2976.00
2024-05-09T06:59:52.584Z,4128.00
2024-05-09T07:00:52.704Z,4764.00
2024-05-09T07:01:52.542Z,3808.00
2024-05-09T07:02:52.630Z,6216.00
2024-05-09T07:03:52.677Z,3196.00
2024-05-09T07:04:52.941Z,3684.00
2024-05-09T07:05:52.612Z,3828.00
2024-05-09T07:06:52.432Z,4196.00
2024-05-09T07:07:53.355Z,4036.00
2024-05-09T07:08:52.722Z,3372.00
2024-05-09T07:09:52.437Z,3432.00
2024-05-09T07:10:52.600Z,5392.00
2024-05-09T07:11:52.471Z,4384.00
2024-05-09T07:12:52.343Z,2476.00
2024-05-09T07:13:52.420Z,1912.00
2024-05-09T07:14:52.506Z,2748.00
2024-05-09T07:15:52.339Z,3380.00
2024-05-09T07:16:52.413Z,2644.00
2024-05-09T07:17:52.645Z,4424.00
2024-05-09T07:18:52.698Z,3356.00
2024-05-09T07:19:52.488Z,4128.00
2024-05-09T07:20:52.318Z,2944.00
2024-05-09T07:21:52.374Z,2196.00
2024-05-09T07:22:52.352Z,2032.00
2024-05-09T07:23:52.397Z,2076.00
2024-05-09T07:24:52.507Z,2488.00
2024-05-09T07:25:52.294Z,2356.00
2024-05-09T07:26:52.375Z,2420.00
2024-05-09T07:27:52.309Z,1952.00
2024-05-09T07:28:52.350Z,2064.00
2024-05-09T07:29:52.805Z,2604.00
2024-05-09T07:30:52.110Z,1992.00
2024-05-09T07:31:52.156Z,2344.00
2024-05-09T07:32:52.201Z,1936.00
2024-05-09T07:33:52.154Z,2100.00
2024-05-09T07:34:52.095Z,2920.00
2024-05-09T07:35:52.217Z,3140.00
2024-05-09T07:36:52.016Z,2284.00
2024-05-09T07:37:52.062Z,2144.00
2024-05-09T07:38:52.062Z,2284.00
2024-05-09T07:39:52.022Z,1924.00
2024-05-09T07:40:52.204Z,1852.00
2024-05-09T07:41:52.748Z,1872.00
2024-05-09T07:42:52.745Z,1856.00
2024-05-09T07:43:52.818Z,1856.00
2024-05-09T07:44:52.008Z,1872.00
2024-05-09T07:45:54.539Z,1916.00
2024-05-09T07:48:13.594Z,1968.00
2024-05-09T07:51:32.710Z,2080.00
2024-05-09T07:53:37.347Z,1984.00
2024-05-09T07:53:51.965Z,1996.00
2024-05-09T07:54:24.196Z,1956.00
2024-05-09T07:55:24.080Z,1944.00
2024-05-09T07:56:24.910Z,1968.00
2024-05-09T07:57:23.979Z,1952.00
2024-05-09T07:58:24.713Z,1980.00
2024-05-09T07:59:23.996Z,2012.00
2024-05-09T08:00:30.896Z,2028.00
2024-05-09T08:01:24.002Z,2028.00
2024-05-09T08:02:24.041Z,2136.00
2024-05-09T08:03:24.306Z,2036.00
2024-05-09T08:04:26.584Z,1992.00
2024-05-09T08:05:24.300Z,1992.00
2024-05-09T08:06:23.977Z,2000.00
2024-05-09T08:07:24.002Z,2000.00
2024-05-09T08:08:23.824Z,1992.00
2024-05-09T08:09:23.811Z,2004.00
2024-05-09T08:10:28.556Z,1988.00
2024-05-09T08:11:24.145Z,2016.00
2024-05-09T08:12:23.962Z,2012.00
2024-05-09T08:13:23.819Z,2024.00
2024-05-09T08:14:23.773Z,2024.00
2024-05-09T08:15:23.927Z,2032.00
2024-05-09T08:16:23.988Z,2044.00
2024-05-09T08:17:23.910Z,2048.00
2024-05-09T08:18:23.887Z,2048.00
2024-05-09T08:19:23.900Z,2084.00
2024-05-09T08:20:30.957Z,2092.00
2024-05-09T08:21:23.721Z,2116.00
2024-05-09T08:22:23.888Z,2088.00
2024-05-09T08:23:23.783Z,2084.00
2024-05-09T08:24:23.653Z,2108.00
2024-05-09T08:25:23.695Z,2104.00
2024-05-09T08:26:23.662Z,2108.00
2024-05-09T08:27:23.730Z,2108.00
2024-05-09T08:28:23.653Z,2124.00
2024-05-09T08:29:23.826Z,2136.00
2024-05-09T08:30:30.138Z,2160.00
2024-05-09T08:31:23.641Z,2148.00
2024-05-09T08:32:23.675Z,2152.00
2024-05-09T08:33:23.770Z,2164.00
2024-05-09T08:34:23.756Z,2180.00
2024-05-09T08:35:23.778Z,2176.00
2024-05-09T08:36:23.542Z,2188.00
2024-05-09T08:37:27.650Z,2208.00
2024-05-09T08:38:23.648Z,2216.00
2024-05-09T08:39:23.749Z,2220.00
2024-05-09T08:40:30.883Z,2244.00
2024-05-09T08:41:23.436Z,2256.00
2024-05-09T08:42:23.609Z,2260.00
2024-05-09T08:43:23.746Z,2260.00
2024-05-09T08:44:23.471Z,2272.00
2024-05-09T08:45:23.418Z,2276.00
2024-05-09T08:46:23.439Z,2304.00
2024-05-09T08:47:23.418Z,2316.00
2024-05-09T08:48:23.528Z,2328.00
2024-05-09T08:49:23.485Z,2320.00
2024-05-09T08:50:32.154Z,2328.00
2024-05-09T08:51:23.314Z,2312.00
2024-05-09T08:52:23.292Z,2320.00
2024-05-09T08:53:23.339Z,2336.00
2024-05-09T08:54:23.266Z,2360.00
2024-05-09T08:55:23.836Z,2384.00
2024-05-09T08:56:23.333Z,2376.00
2024-05-09T08:57:23.211Z,2372.00
2024-05-09T08:58:23.303Z,2360.00
2024-05-09T08:59:23.734Z,2388.00
2024-05-09T09:00:33.446Z,2416.00
2024-05-09T09:01:23.411Z,2448.00
2024-05-09T09:02:23.467Z,2456.00
2024-05-09T09:03:23.189Z,2496.00
2024-05-09T09:04:23.473Z,2500.00
2024-05-09T09:05:23.369Z,2492.00
2024-05-09T09:06:23.279Z,2496.00
2024-05-09T09:07:23.217Z,2508.00
2024-05-09T09:08:23.157Z,2512.00
2024-05-09T09:09:22.994Z,2516.00
2024-05-09T09:10:29.743Z,2508.00
2024-05-09T09:11:23.220Z,2528.00
2024-05-09T09:12:23.057Z,2560.00
2024-05-09T09:13:23.156Z,2572.00
2024-05-09T09:14:22.955Z,2544.00
2024-05-09T09:15:23.332Z,2532.00
2024-05-09T09:16:23.295Z,2528.00
2024-05-09T09:17:23.280Z,2552.00
2024-05-09T09:18:23.133Z,2556.00
2024-05-09T09:19:23.207Z,2540.00
2024-05-09T09:20:28.708Z,2540.00
2024-05-09T09:21:22.968Z,2664.00
2024-05-09T09:22:22.946Z,2580.00
2024-05-09T09:23:22.950Z,2568.00
2024-05-09T09:24:22.877Z,2608.00
2024-05-09T09:25:22.962Z,2652.00
2024-05-09T09:26:22.829Z,2608.00
2024-05-09T09:27:22.931Z,2568.00
2024-05-09T09:28:23.062Z,2584.00
2024-05-09T09:29:22.803Z,2624.00
2024-05-09T09:30:34.451Z,2632.00
2024-05-09T09:31:22.945Z,2644.00
2024-05-09T09:32:22.900Z,2684.00
2024-05-09T09:33:23.030Z,2716.00
2024-05-09T09:34:22.930Z,2764.00
2024-05-09T09:35:23.053Z,2764.00
2024-05-09T09:36:22.728Z,2800.00
2024-05-09T09:37:22.772Z,2808.00
2024-05-09T09:38:22.642Z,2828.00
2024-05-09T09:39:22.614Z,2864.00
2024-05-09T09:40:29.295Z,2884.00
2024-05-09T09:41:22.614Z,2924.00
2024-05-09T09:42:22.589Z,2944.00
2024-05-09T09:43:23.253Z,2976.00
2024-05-09T09:44:22.536Z,2992.00
2024-05-09T09:45:22.591Z,2888.00
2024-05-09T09:46:22.523Z,3092.00
2024-05-09T09:47:22.533Z,3204.00
2024-05-09T09:48:23.302Z,3216.00
2024-05-09T09:49:22.507Z,3196.00
2024-05-09T09:50:27.948Z,3232.00
2024-05-09T09:51:22.487Z,3284.00
2024-05-09T09:52:22.555Z,3368.00
2024-05-09T09:53:22.452Z,3448.00
2024-05-09T09:54:22.701Z,3512.00
2024-05-09T09:55:22.539Z,3580.00
2024-05-09T09:56:22.586Z,3732.00
2024-05-09T09:57:22.445Z,3980.00
2024-05-09T09:58:22.699Z,4084.00
2024-05-09T09:59:22.560Z,4280.00
2024-05-09T10:00:27.402Z,4588.00
2024-05-09T10:01:22.799Z,4932.00
2024-05-09T10:02:22.782Z,5292.00
2024-05-09T10:03:22.529Z,5748.00
2024-05-09T10:04:22.496Z,6176.00
2024-05-09T10:05:22.613Z,6272.00
2024-05-09T10:06:22.492Z,6192.00
2024-05-09T10:07:22.358Z,6432.00
2024-05-09T10:08:22.268Z,6416.00
2024-05-09T10:09:22.254Z,6396.00
2024-05-09T10:10:29.900Z,6472.00
2024-05-09T10:11:22.503Z,6564.00
2024-05-09T10:12:22.298Z,6664.00
2024-05-09T10:13:22.378Z,6760.00
2024-05-09T10:14:22.405Z,7000.00
2024-05-09T10:15:22.261Z,6944.00
2024-05-09T10:16:22.393Z,6828.00
2024-05-09T10:17:22.141Z,6744.00
2024-05-09T10:18:22.163Z,6612.00
2024-05-09T10:19:22.131Z,6644.00
2024-05-09T10:20:27.745Z,6700.00
2024-05-09T10:21:22.087Z,3272.00
2024-05-09T10:22:22.116Z,3424.00
2024-05-09T10:23:22.132Z,4640.00
2024-05-09T10:24:22.049Z,8044.00
2024-05-09T10:25:22.242Z,7792.00
2024-05-09T10:26:22.102Z,7616.00
2024-05-09T10:27:21.979Z,7684.00
2024-05-09T10:28:21.976Z,7576.00
2024-05-09T10:29:21.964Z,7436.00
2024-05-09T10:31:21.982Z,7236.00
2024-05-09T10:32:21.943Z,7240.00
2024-05-09T10:33:21.981Z,7404.00
2024-05-09T10:34:22.250Z,7144.00
2024-05-09T10:35:21.880Z,7420.00
2024-05-09T10:36:21.882Z,7532.00
2024-05-09T10:37:21.952Z,7692.00
2024-05-09T10:38:21.824Z,7708.00
2024-05-09T10:39:21.850Z,7700.00
2024-05-09T10:40:26.610Z,7972.00
2024-05-09T10:41:21.866Z,8216.00
2024-05-09T10:42:21.893Z,8884.00
2024-05-09T10:43:21.887Z,9916.00
2024-05-09T10:44:21.778Z,10660.00
2024-05-09T10:45:21.735Z,10944.00
2024-05-09T10:46:22.021Z,11232.00
2024-05-09T10:47:21.784Z,11040.00
2024-05-09T10:48:21.783Z,10632.00
2024-05-09T10:49:21.774Z,10976.00
2024-05-09T10:50:28.183Z,6012.00
2024-05-09T10:51:21.700Z,7964.00
2024-05-09T10:52:21.841Z,6496.00
2024-05-09T10:53:21.650Z,4872.00
2024-05-09T10:54:21.642Z,7524.00
2024-05-09T10:55:22.070Z,10644.00
2024-05-09T10:56:21.618Z,10272.00
2024-05-09T10:57:21.576Z,10076.00
2024-05-09T10:58:21.639Z,10284.00
2024-05-09T10:59:21.581Z,10700.00
2024-05-09T11:00:27.740Z,10524.00
2024-05-09T11:01:21.678Z,10512.00
2024-05-09T11:02:21.632Z,10264.00
2024-05-09T11:03:21.626Z,10128.00
2024-05-09T11:04:21.776Z,9920.00
2024-05-09T11:05:21.884Z,9844.00
2024-05-09T11:06:21.481Z,9872.00
2024-05-09T11:07:21.621Z,10224.00
2024-05-09T11:08:21.451Z,10360.00
2024-05-09T11:09:21.453Z,9916.00
2024-05-09T11:10:27.736Z,4888.00
2024-05-09T11:11:21.879Z,5500.00
2024-05-09T11:12:23.536Z,8180.00
2024-05-09T11:13:21.430Z,6684.00
2024-05-09T11:14:21.403Z,6604.00
2024-05-09T11:15:21.356Z,6940.00
2024-05-09T11:16:21.785Z,8052.00
2024-05-09T11:17:21.489Z,9716.00
2024-05-09T11:18:24.639Z,10532.00
2024-05-09T11:19:21.446Z,11324.00
2024-05-09T11:20:29.086Z,11936.00
2024-05-09T11:21:21.428Z,12316.00
2024-05-09T11:22:21.365Z,12768.00
2024-05-09T11:23:21.249Z,13492.00
2024-05-09T11:24:21.295Z,14240.00
2024-05-09T11:25:21.263Z,14912.00
2024-05-09T11:26:21.233Z,15072.00
2024-05-09T11:27:21.207Z,15360.00
2024-05-09T11:28:21.272Z,15168.00
2024-05-09T11:29:21.241Z,15040.00
2024-05-09T11:30:26.996Z,15168.00
2024-05-09T11:31:21.488Z,15072.00
2024-05-09T11:32:21.190Z,15168.00
2024-05-09T11:33:21.159Z,15296.00
2024-05-09T11:34:21.169Z,14944.00
2024-05-09T11:35:21.108Z,15104.00
2024-05-09T11:36:21.099Z,15168.00
2024-05-09T11:37:21.147Z,15168.00
2024-05-09T11:38:21.115Z,15200.00
2024-05-09T11:39:21.180Z,15808.00
2024-05-09T11:40:25.639Z,15968.00
2024-05-09T11:41:21.036Z,14752.00
2024-05-09T11:42:21.007Z,14848.00
2024-05-09T11:43:21.341Z,15328.00
2024-05-09T11:44:21.029Z,14560.00
2024-05-09T11:45:21.121Z,13740.00
2024-05-09T11:46:21.061Z,13172.00
2024-05-09T11:47:21.077Z,13528.00
2024-05-09T11:48:21.125Z,40864.00
2024-05-09T11:49:23.128Z,17696.00
2024-05-09T11:50:27.203Z,14720.00
2024-05-09T11:51:20.889Z,14688.00
2024-05-09T11:52:20.939Z,14560.00
2024-05-09T11:53:20.939Z,14720.00
2024-05-09T11:54:20.839Z,14816.00
2024-05-09T11:55:22.050Z,14592.00
2024-05-09T11:56:20.850Z,14208.00
2024-05-09T11:57:20.811Z,12416.00
2024-05-09T11:58:20.981Z,14208.00
2024-05-09T11:59:20.789Z,14816.00
2024-05-09T12:00:29.244Z,15424.00
2024-05-09T12:01:22.033Z,16192.00
2024-05-09T12:02:20.888Z,16896.00
2024-05-09T12:03:20.835Z,15328.00
2024-05-09T12:04:20.883Z,14880.00
2024-05-09T12:05:21.102Z,15424.00
2024-05-09T12:06:20.699Z,16064.00
2024-05-09T12:07:20.745Z,16288.00
2024-05-09T12:08:20.688Z,16640.00
2024-05-09T12:09:20.693Z,16800.00
2024-05-09T12:10:26.040Z,16768.00
2024-05-09T12:11:20.689Z,16032.00
2024-05-09T12:12:20.627Z,16480.00
2024-05-09T12:13:20.693Z,19552.00
2024-05-09T12:14:20.651Z,18912.00
2024-05-09T12:15:20.582Z,16320.00
2024-05-09T12:16:20.805Z,15424.00
2024-05-09T12:17:20.804Z,15680.00
2024-05-09T12:18:20.571Z,17792.00
2024-05-09T12:19:20.667Z,17280.00
2024-05-09T12:20:28.569Z,16736.00
2024-05-09T12:21:20.506Z,15712.00
2024-05-09T12:22:20.530Z,15264.00
2024-05-09T12:23:20.498Z,15744.00
2024-05-09T12:24:20.499Z,15968.00
2024-05-09T12:25:20.532Z,16704.00
2024-05-09T12:26:20.572Z,17088.00
2024-05-09T12:27:20.430Z,16960.00
2024-05-09T12:28:20.470Z,16800.00
2024-05-09T12:29:20.426Z,16192.00
2024-05-09T12:30:32.263Z,15904.00